Time;durP1;ratioP1;P1;durP2;ratioP2;P2;SDS_P1;SDS_P2;PMS_P1;PMS_P2;Temp;Humidity;BMP_temperature;BMP_pressure;BME280_temperature;BME280_humidity;BME280_pressure;Samples;Min_cycle;Max_cycle;Signal;HPM_P1;HPM_P2
2022/11/09 00:00:38;;;;;;;5.32;2.72;;;12.60;99.90;;;;;;5009915;28;20049;-85
2022/11/09 00:03:05;;;;;;;5.18;3.05;;;12.60;99.90;;;;;;5037654;28;20041;-84
2022/11/09 00:05:32;;;;;;;7.07;3.60;;;12.60;99.90;;;;;;5036116;28;20044;-84
2022/11/09 00:07:58;;;;;;;8.32;3.88;;;12.60;99.90;;;;;;5005045;28;20042;-84
2022/11/09 00:10:24;;;;;;;4.72;3.25;;;12.60;99.90;;;;;;5024314;28;20034;-84
2022/11/09 00:12:50;;;;;;;7.28;3.03;;;12.50;99.90;;;;;;5014742;28;20034;-83
2022/11/09 00:15:17;;;;;;;7.38;3.30;;;12.50;99.90;;;;;;5009341;28;20122;-84
2022/11/09 00:17:43;;;;;;;10.27;3.88;;;12.50;99.90;;;;;;5018132;28;20049;-83
2022/11/09 00:20:11;;;;;;;6.00;3.70;;;12.40;99.90;;;;;;5015026;28;20041;-82
2022/11/09 00:22:37;;;;;;;8.65;4.53;;;12.40;99.90;;;;;;5005011;28;20033;-81
2022/11/09 00:25:04;;;;;;;8.35;5.00;;;12.40;99.90;;;;;;5037375;28;20041;-80
2022/11/09 00:27:30;;;;;;;9.80;6.18;;;12.40;99.90;;;;;;5050492;28;20037;-80
2022/11/09 00:29:56;;;;;;;10.15;4.97;;;12.40;99.90;;;;;;5036295;28;20051;-81
2022/11/09 00:32:22;;;;;;;9.88;5.47;;;12.40;99.90;;;;;;5004127;28;20495;-83
2022/11/09 00:34:49;;;;;;;7.70;4.93;;;12.40;99.90;;;;;;5021032;28;20045;-82
2022/11/09 00:37:15;;;;;;;8.20;5.53;;;12.40;99.90;;;;;;5036063;28;20030;-82
2022/11/09 00:39:42;;;;;;;13.68;7.57;;;12.30;99.90;;;;;;5008755;28;20049;-83
2022/11/09 00:42:08;;;;;;;11.25;8.15;;;12.30;99.90;;;;;;4981107;28;20038;-83
2022/11/09 00:44:35;;;;;;;9.18;6.72;;;12.30;99.90;;;;;;5004728;28;20030;-84
2022/11/09 00:47:01;;;;;;;8.77;6.50;;;12.30;99.90;;;;;;5016979;28;20038;-83
2022/11/09 00:49:27;;;;;;;9.90;6.25;;;12.30;99.90;;;;;;5014452;28;20056;-83
2022/11/09 00:51:53;;;;;;;10.50;6.13;;;12.30;99.90;;;;;;4995039;28;20049;-82
2022/11/09 00:54:20;;;;;;;9.95;6.47;;;12.30;99.90;;;;;;4983137;28;20042;-81
2022/11/09 00:56:46;;;;;;;9.68;6.07;;;12.30;99.90;;;;;;5033610;28;20105;-82
2022/11/09 00:59:12;;;;;;;10.45;5.25;;;12.30;99.90;;;;;;5031862;28;20044;-82
2022/11/09 01:01:39;;;;;;;8.88;5.18;;;12.30;99.90;;;;;;5003984;28;20037;-84
2022/11/09 01:04:05;;;;;;;6.25;4.70;;;12.30;99.90;;;;;;5020236;28;20026;-81
2022/11/09 01:06:32;;;;;;;8.10;4.75;;;12.30;99.90;;;;;;5001750;28;20395;-82
2022/11/09 01:08:58;;;;;;;8.27;4.70;;;12.30;99.90;;;;;;5032804;28;20064;-81
2022/11/09 01:11:25;;;;;;;6.05;4.25;;;12.30;99.90;;;;;;5035772;28;20025;-82
2022/11/09 01:13:52;;;;;;;7.63;4.65;;;12.40;99.90;;;;;;5019525;28;20463;-84
2022/11/09 01:16:21;;;;;;;5.97;4.35;;;12.40;99.90;;;;;;5016947;28;20033;-84
2022/11/09 01:18:52;;;;;;;8.43;5.28;;;12.40;99.90;;;;;;5010182;28;20525;-84
2022/11/09 01:21:18;;;;;;;8.85;4.78;;;12.40;99.90;;;;;;5015488;28;20033;-86
2022/11/09 01:23:44;;;;;;;9.05;4.93;;;12.40;99.90;;;;;;5000275;28;20034;-85
2022/11/09 01:26:12;;;;;;;7.55;4.72;;;12.40;99.90;;;;;;5015722;28;20045;-84
2022/11/09 01:28:39;;;;;;;10.00;6.03;;;12.40;99.90;;;;;;5008223;28;20037;-83
2022/11/09 01:31:15;;;;;;;8.65;5.72;;;12.40;99.90;;;;;;5013034;28;20038;-84
2022/11/09 01:33:42;;;;;;;8.48;4.88;;;12.40;99.90;;;;;;5015406;28;20030;-84
2022/11/09 01:36:11;;;;;;;10.70;5.88;;;12.40;99.90;;;;;;4996512;28;20049;-83
2022/11/09 01:38:38;;;;;;;7.25;4.95;;;12.40;99.90;;;;;;4981075;28;20054;-84
2022/11/09 01:41:06;;;;;;;7.80;5.65;;;12.40;99.90;;;;;;5012980;28;20459;-83
2022/11/09 01:43:33;;;;;;;9.55;5.55;;;12.40;99.90;;;;;;4998289;28;20030;-84
2022/11/09 01:46:19;;;;;;;8.38;5.97;;;12.40;99.90;;;;;;4996754;28;20057;-82
2022/11/09 01:49:01;;;;;;;11.13;5.53;;;12.30;99.90;;;;;;4998394;28;20077;-81
2022/11/09 01:51:41;;;;;;;8.60;5.45;;;12.40;99.90;;;;;;5041781;28;20402;-83
2022/11/09 01:54:39;;;;;;;9.20;6.32;;;12.40;99.90;;;;;;5019669;28;20029;-84
2022/11/09 01:57:12;;;;;;;12.15;6.78;;;12.40;99.90;;;;;;5028153;28;20045;-82
2022/11/09 01:59:43;;;;;;;16.05;9.35;;;12.40;99.90;;;;;;5015198;28;20044;-82
2022/11/09 02:02:10;;;;;;;13.43;9.95;;;12.30;99.90;;;;;;5013641;28;20036;-81
2022/11/09 02:04:46;;;;;;;21.30;10.25;;;12.20;99.90;;;;;;5009097;28;20391;-82
2022/11/09 02:07:12;;;;;;;17.00;10.50;;;12.20;99.90;;;;;;4986210;28;20041;-81
2022/11/09 02:09:47;;;;;;;15.40;10.27;;;12.00;99.90;;;;;;5026095;28;20056;-81
2022/11/09 02:12:14;;;;;;;14.45;9.75;;;12.00;99.90;;;;;;5013466;28;20037;-82
2022/11/09 02:14:40;;;;;;;18.33;11.00;;;11.90;99.90;;;;;;4996801;28;20502;-82
2022/11/09 02:17:07;;;;;;;12.95;9.15;;;11.80;99.90;;;;;;5013130;28;20041;-82
2022/11/09 02:19:33;;;;;;;17.35;10.88;;;11.80;99.90;;;;;;4979118;28;20530;-83
2022/11/09 02:22:00;;;;;;;15.68;10.60;;;11.80;99.90;;;;;;4996337;28;20034;-82
2022/11/09 02:24:27;;;;;;;17.45;10.73;;;11.80;99.90;;;;;;5014394;28;20038;-82
2022/11/09 02:26:53;;;;;;;15.93;10.63;;;11.80;99.90;;;;;;5037937;28;20034;-82
2022/11/09 02:29:24;;;;;;;14.70;9.48;;;11.70;99.90;;;;;;4996534;28;20060;-83
2022/11/09 02:31:52;;;;;;;;;;;11.70;99.90;;;;;;5026090;28;20045;-83
2022/11/09 02:34:20;;;;;;;16.25;10.25;;;11.70;99.90;;;;;;4995939;28;19909;-83
2022/11/09 02:36:47;;;;;;;15.93;9.43;;;11.70;99.90;;;;;;5001622;28;20053;-82
2022/11/09 02:39:23;;;;;;;14.52;10.68;;;11.60;99.90;;;;;;5012934;28;20068;-83
2022/11/09 02:42:12;;;;;;;;;;;11.60;99.90;;;;;;4997184;28;20049;-83
2022/11/09 02:44:44;;;;;;;13.98;9.13;;;11.50;99.90;;;;;;5008450;28;19921;-85
2022/11/09 02:47:11;;;;;;;15.50;9.23;;;11.50;99.90;;;;;;5011885;28;20045;-85
2022/11/09 02:49:38;;;;;;;19.85;10.55;;;11.50;99.90;;;;;;5013740;28;20041;-85
2022/11/09 02:52:04;;;;;;;14.40;9.25;;;11.40;99.90;;;;;;5012337;28;20476;-82
2022/11/09 02:54:30;;;;;;;16.55;9.48;;;11.40;99.90;;;;;;4998047;28;20045;-85
2022/11/09 02:56:58;;;;;;;15.43;9.15;;;11.40;99.90;;;;;;4996114;28;20467;-85
2022/11/09 02:59:25;;;;;;;14.63;9.38;;;11.40;99.90;;;;;;5011361;28;20569;-86
2022/11/09 03:01:52;;;;;;;18.00;9.68;;;11.40;99.90;;;;;;5016345;28;20053;-86
2022/11/09 03:04:18;;;;;;;14.80;9.35;;;11.40;99.90;;;;;;5017876;28;20041;-85
2022/11/09 03:06:45;;;;;;;14.70;9.75;;;11.40;99.90;;;;;;5016969;28;20041;-87
2022/11/09 03:09:15;;;;;;;17.15;9.82;;;11.40;99.90;;;;;;4999386;28;20053;-87
2022/11/09 03:11:42;;;;;;;17.38;9.63;;;11.40;99.90;;;;;;5013851;28;20045;-87
2022/11/09 03:14:12;;;;;;;15.63;9.93;;;11.40;99.90;;;;;;5012503;28;20052;-86
2022/11/09 03:16:43;;;;;;;14.65;9.45;;;11.50;99.90;;;;;;5014340;28;20390;-85
2022/11/09 03:19:09;;;;;;;14.77;9.73;;;11.50;99.90;;;;;;4983097;28;20053;-86
2022/11/09 03:21:36;;;;;;;14.60;9.68;;;11.50;99.90;;;;;;5018929;28;20045;-84
2022/11/09 03:24:02;;;;;;;18.48;10.85;;;11.50;99.90;;;;;;5020126;28;20037;-85
2022/11/09 03:26:28;;;;;;;17.45;10.55;;;11.50;99.90;;;;;;5028392;28;20026;-83
2022/11/09 03:28:55;;;;;;;15.23;11.43;;;11.50;99.90;;;;;;5018879;28;20056;-82
2022/11/09 03:31:22;;;;;;;18.55;11.23;;;11.50;99.90;;;;;;5018240;28;20026;-80
2022/11/09 03:33:49;;;;;;;18.27;10.75;;;11.50;99.90;;;;;;5002200;28;20368;-78
2022/11/09 03:36:15;;;;;;;14.55;11.35;;;11.50;99.90;;;;;;5017529;28;20034;-79
2022/11/09 03:38:41;;;;;;;16.25;10.45;;;11.50;99.90;;;;;;4994136;28;20041;-82
2022/11/09 03:41:08;;;;;;;17.98;11.30;;;11.50;99.90;;;;;;4995693;28;20359;-80
2022/11/09 03:43:36;;;;;;;18.27;11.52;;;11.40;99.90;;;;;;5006795;28;20042;-80
2022/11/09 03:46:02;;;;;;;15.57;10.43;;;11.40;99.90;;;;;;5003882;28;20030;-80
2022/11/09 03:48:28;;;;;;;18.52;11.73;;;11.40;99.90;;;;;;5011394;28;20037;-82
2022/11/09 03:50:54;;;;;;;21.70;13.73;;;11.40;99.90;;;;;;4994296;28;20038;-80
2022/11/09 03:53:20;;;;;;;17.58;11.75;;;11.40;99.90;;;;;;5001112;28;20244;-81
2022/11/09 03:55:47;;;;;;;18.25;11.52;;;11.30;99.90;;;;;;4998461;28;20044;-82
2022/11/09 03:58:13;;;;;;;16.70;10.25;;;11.40;99.90;;;;;;4999486;28;20391;-81
2022/11/09 04:00:39;;;;;;;18.83;11.02;;;11.40;99.90;;;;;;4998313;28;20050;-80
2022/11/09 04:03:05;;;;;;;17.63;12.15;;;11.30;99.90;;;;;;5017186;28;20040;-82
2022/11/09 04:05:32;;;;;;;16.70;12.02;;;11.30;99.90;;;;;;4998729;28;20038;-81
2022/11/09 04:07:58;;;;;;;21.52;11.88;;;11.30;99.90;;;;;;4998704;28;20046;-82
2022/11/09 04:10:26;;;;;;;19.90;13.27;;;11.30;99.90;;;;;;5014937;28;20041;-81
2022/11/09 04:12:52;;;;;;;18.23;12.38;;;11.30;99.90;;;;;;4998955;28;20029;-82
2022/11/09 04:15:18;;;;;;;22.20;13.95;;;11.30;99.90;;;;;;5005860;28;20040;-83
2022/11/09 04:18:00;;;;;;;20.55;13.00;;;11.30;99.90;;;;;;5036325;28;20374;-80
2022/11/09 04:20:28;;;;;;;19.67;13.35;;;11.30;99.90;;;;;;5000700;28;20041;-80
2022/11/09 04:22:58;;;;;;;18.90;13.00;;;11.30;99.90;;;;;;4999406;28;20038;-80
2022/11/09 04:25:26;;;;;;;24.92;14.35;;;11.30;99.90;;;;;;5016902;28;20026;-80
2022/11/09 04:27:56;;;;;;;22.88;13.88;;;11.30;99.90;;;;;;4986199;28;20049;-80
2022/11/09 04:30:26;;;;;;;21.27;13.88;;;11.30;99.90;;;;;;5013362;28;20047;-75
2022/11/09 04:32:54;;;;;;;23.85;13.52;;;11.30;99.90;;;;;;5016235;28;20056;-80
2022/11/09 04:35:21;;;;;;;24.40;15.23;;;11.30;99.90;;;;;;5029481;28;20041;-80
2022/11/09 04:37:58;;;;;;;23.67;14.32;;;11.30;99.90;;;;;;5019350;28;20030;-80
2022/11/09 04:40:26;;;;;;;28.20;15.90;;;11.30;99.90;;;;;;5003123;28;20052;-80
2022/11/09 04:42:52;;;;;;;28.17;16.48;;;11.30;99.90;;;;;;4999810;28;20038;-80
2022/11/09 04:45:19;;;;;;;26.73;16.30;;;11.40;99.90;;;;;;5015652;28;20026;-80
2022/11/09 04:47:46;;;;;;;25.67;17.05;;;11.30;99.90;;;;;;5029907;28;20033;-78
2022/11/09 04:50:12;;;;;;;27.58;16.73;;;11.40;99.90;;;;;;5054384;28;20031;-80
2022/11/09 04:52:39;;;;;;;28.25;16.75;;;11.40;99.90;;;;;;5012534;28;20044;-79
2022/11/09 04:55:06;;;;;;;28.45;16.83;;;11.40;99.90;;;;;;5015985;28;20546;-78
2022/11/09 04:57:32;;;;;;;29.00;16.85;;;11.30;99.90;;;;;;4997416;28;20061;-77
2022/11/09 04:59:59;;;;;;;24.88;15.95;;;11.40;99.90;;;;;;5028053;28;20386;-77
2022/11/09 05:02:25;;;;;;;29.48;18.17;;;11.40;99.90;;;;;;5033545;28;20050;-78
2022/11/09 05:04:51;;;;;;;29.52;17.10;;;11.40;99.90;;;;;;5020960;28;20046;-78
2022/11/09 05:07:17;;;;;;;31.23;16.98;;;11.40;99.90;;;;;;5014574;28;20038;-78
2022/11/09 05:09:43;;;;;;;24.85;16.23;;;11.40;99.90;;;;;;5031741;28;20053;-79
2022/11/09 05:12:10;;;;;;;31.05;18.17;;;11.40;99.90;;;;;;5007820;28;20033;-83
2022/11/09 05:14:36;;;;;;;28.95;16.60;;;11.40;99.90;;;;;;5026891;28;20029;-78
2022/11/09 05:17:03;;;;;;;28.33;16.30;;;11.40;99.90;;;;;;5033693;28;20025;-77
2022/11/09 05:19:29;;;;;;;30.08;16.55;;;11.30;99.90;;;;;;5013320;28;20045;-79
2022/11/09 05:21:55;;;;;;;27.25;17.13;;;11.40;99.90;;;;;;5033945;28;20029;-78
2022/11/09 05:24:21;;;;;;;28.52;17.60;;;11.30;99.90;;;;;;5032332;28;20048;-79
2022/11/09 05:26:47;;;;;;;28.85;17.23;;;11.40;99.90;;;;;;5028910;28;20037;-78
2022/11/09 05:29:13;;;;;;;30.55;16.42;;;11.40;99.90;;;;;;4993782;28;20050;-80
2022/11/09 05:31:41;;;;;;;32.13;17.77;;;11.30;99.90;;;;;;5013803;28;20037;-78
2022/11/09 05:34:10;;;;;;;30.50;17.25;;;11.30;99.90;;;;;;5014108;28;20369;-78
2022/11/09 05:36:38;;;;;;;;;;;11.40;99.90;;;;;;5021127;28;20141;-79
2022/11/09 05:39:04;;;;;;;31.55;16.63;;;11.40;99.90;;;;;;4995268;28;19909;-79
2022/11/09 05:41:30;;;;;;;27.67;16.13;;;11.40;99.90;;;;;;4995529;28;20230;-79
2022/11/09 05:43:56;;;;;;;27.20;16.83;;;11.40;99.90;;;;;;5013820;28;20037;-79
2022/11/09 05:46:22;;;;;;;29.15;16.63;;;11.40;99.90;;;;;;4995133;28;20053;-79
2022/11/09 05:48:48;;;;;;;26.30;15.95;;;11.40;99.90;;;;;;5012770;28;20096;-79
2022/11/09 05:51:15;;;;;;;27.90;16.63;;;11.50;99.90;;;;;;4979240;28;20042;-83
2022/11/09 05:53:41;;;;;;;26.35;16.17;;;11.50;99.90;;;;;;4980818;28;20467;-79
2022/11/09 05:56:11;;;;;;;27.92;16.02;;;11.50;99.90;;;;;;5032948;28;20040;-79
2022/11/09 05:58:37;;;;;;;32.33;17.58;;;11.50;99.90;;;;;;4981544;28;20403;-80
2022/11/09 06:01:15;;;;;;;32.35;16.90;;;11.50;99.90;;;;;;5027519;28;20089;-79
2022/11/09 06:03:42;;;;;;;33.95;17.30;;;11.50;99.90;;;;;;5014825;28;20041;-77
2022/11/09 06:06:10;;;;;;;27.90;17.08;;;11.50;99.90;;;;;;5014342;28;20045;-78
2022/11/09 06:08:36;;;;;;;24.90;15.65;;;11.60;99.90;;;;;;5030929;28;20491;-80
2022/11/09 06:11:09;;;;;;;29.67;18.65;;;11.50;99.90;;;;;;5026396;28;20038;-80
2022/11/09 06:13:36;;;;;;;32.33;18.20;;;11.60;99.90;;;;;;5014758;28;20037;-79
2022/11/09 06:16:04;;;;;;;28.80;17.20;;;11.60;99.90;;;;;;5014188;28;20050;-79
2022/11/09 06:18:32;;;;;;;27.42;16.02;;;11.60;99.90;;;;;;5029846;28;20048;-81
2022/11/09 06:21:01;;;;;;;28.73;17.55;;;11.60;99.90;;;;;;5006220;28;20038;-80
2022/11/09 06:23:28;;;;;;;32.75;18.27;;;11.60;99.90;;;;;;4999579;28;20038;-79
2022/11/09 06:25:58;;;;;;;25.33;16.13;;;11.60;99.90;;;;;;4995930;28;20030;-82
2022/11/09 06:28:25;;;;;;;22.17;13.25;;;11.60;99.90;;;;;;5021401;28;20029;-83
2022/11/09 06:30:51;;;;;;;28.10;16.35;;;11.60;99.90;;;;;;5014432;28;20037;-81
2022/11/09 06:33:17;;;;;;;39.72;17.10;;;11.60;99.90;;;;;;5032336;28;20044;-81
2022/11/09 06:35:44;;;;;;;26.98;15.00;;;11.60;99.90;;;;;;5001548;28;20049;-81
2022/11/09 06:38:12;;;;;;;25.10;13.35;;;11.60;99.90;;;;;;4998908;28;20041;-81
2022/11/09 06:40:39;;;;;;;23.42;14.25;;;11.70;99.90;;;;;;5006893;28;20048;-79
2022/11/09 06:43:52;;;;;;;22.77;12.68;;;11.70;99.90;;;;;;5002278;28;20367;-81
2022/11/09 06:46:19;;;;;;;23.38;14.02;;;11.70;99.90;;;;;;4952389;28;20048;-79
2022/11/09 06:48:46;;;;;;;22.95;14.63;;;11.60;99.90;;;;;;5015039;28;20029;-80
2022/11/09 06:51:12;;;;;;;21.50;12.27;;;11.60;99.90;;;;;;5002339;28;20041;-80
2022/11/09 06:53:40;;;;;;;24.55;14.32;;;11.70;99.90;;;;;;4984194;28;20034;-81
2022/11/09 06:56:07;;;;;;;21.00;13.60;;;11.70;99.90;;;;;;4995479;28;20106;-81
2022/11/09 06:58:35;;;;;;;28.13;15.75;;;11.70;99.90;;;;;;5012563;28;20553;-80
2022/11/09 07:01:15;;;;;;;24.50;13.95;;;11.70;99.90;;;;;;5002339;28;20276;-81
2022/11/09 07:03:42;;;;;;;22.87;12.83;;;11.70;99.90;;;;;;5017871;28;20033;-81
2022/11/09 07:06:10;;;;;;;19.75;12.27;;;11.70;99.90;;;;;;5032328;28;20036;-81
2022/11/09 07:08:38;;;;;;;19.30;11.57;;;11.70;99.90;;;;;;5013891;28;20052;-81
2022/11/09 07:11:11;;;;;;;13.98;8.88;;;11.70;99.90;;;;;;5031769;28;20040;-80
2022/11/09 07:13:38;;;;;;;14.13;8.70;;;11.70;99.90;;;;;;4996416;28;20116;-79
2022/11/09 07:16:05;;;;;;;13.63;7.80;;;11.80;99.90;;;;;;5010559;28;20026;-82
2022/11/09 07:18:32;;;;;;;11.40;7.45;;;11.80;99.90;;;;;;4995287;28;20033;-80
2022/11/09 07:20:59;;;;;;;10.32;7.18;;;11.80;99.90;;;;;;5022792;28;20025;-79
2022/11/09 07:23:25;;;;;;;13.13;7.32;;;11.80;99.90;;;;;;5010285;28;20033;-83
2022/11/09 07:25:51;;;;;;;10.38;6.50;;;11.80;99.90;;;;;;5014511;28;20025;-80
2022/11/09 07:28:18;;;;;;;10.50;5.88;;;11.80;99.90;;;;;;5023589;28;20030;-80
2022/11/09 07:30:44;;;;;;;10.57;5.75;;;11.80;99.90;;;;;;5007185;28;20042;-79
2022/11/09 07:33:16;;;;;;;9.43;5.20;;;11.80;99.90;;;;;;5013483;28;20026;-81
2022/11/09 07:35:43;;;;;;;8.48;5.78;;;11.90;99.90;;;;;;4981714;28;20039;-80
2022/11/09 07:38:10;;;;;;;11.68;5.30;;;11.90;99.90;;;;;;4975177;28;20045;-80
2022/11/09 07:40:36;;;;;;;11.93;5.05;;;11.90;99.90;;;;;;4988216;28;20033;-80
2022/11/09 07:43:05;;;;;;;9.40;5.20;;;11.90;99.90;;;;;;4994295;28;20053;-79
2022/11/09 07:45:33;;;;;;;7.80;4.60;;;11.90;99.90;;;;;;4992100;28;20030;-79
2022/11/09 07:48:02;;;;;;;9.40;5.63;;;11.90;99.90;;;;;;4977884;28;20038;-78
2022/11/09 07:50:29;;;;;;;9.63;5.90;;;11.90;99.90;;;;;;4992902;28;20033;-80
2022/11/09 07:52:57;;;;;;;10.25;5.63;;;11.90;99.90;;;;;;4979068;28;20045;-78
2022/11/09 07:55:25;;;;;;;9.23;6.00;;;11.90;99.90;;;;;;5009678;28;20029;-78
2022/11/09 07:57:58;;;;;;;12.68;6.38;;;11.90;99.90;;;;;;5009481;28;20026;-80
2022/11/09 08:00:27;;;;;;;8.55;5.15;;;11.90;99.90;;;;;;4981407;28;20042;-78
2022/11/09 08:02:53;;;;;;;8.07;5.75;;;11.90;99.90;;;;;;4990248;28;20049;-78
2022/11/09 08:05:20;;;;;;;8.82;5.68;;;12.00;99.90;;;;;;4986335;28;20057;-78
2022/11/09 08:07:46;;;;;;;10.93;5.40;;;12.00;99.90;;;;;;4981927;28;20368;-78
2022/11/09 08:10:13;;;;;;;13.50;5.30;;;12.00;99.90;;;;;;4992837;28;20140;-78
2022/11/09 08:12:40;;;;;;;7.18;3.92;;;12.00;99.90;;;;;;4974584;28;20073;-78
2022/11/09 08:15:06;;;;;;;6.88;4.28;;;12.00;99.90;;;;;;4992878;28;20101;-78
2022/11/09 08:17:32;;;;;;;7.00;3.75;;;12.00;99.90;;;;;;4981718;28;20042;-79
2022/11/09 08:19:59;;;;;;;6.50;3.92;;;12.00;99.90;;;;;;5010077;28;20398;-80
2022/11/09 08:22:25;;;;;;;6.85;3.60;;;12.00;99.90;;;;;;4993106;28;20034;-81
2022/11/09 08:24:51;;;;;;;6.68;4.10;;;12.00;99.90;;;;;;4974069;28;20034;-79
2022/11/09 08:27:17;;;;;;;5.82;3.53;;;12.00;99.90;;;;;;4974332;28;20038;-79
2022/11/09 08:29:44;;;;;;;9.75;4.65;;;12.00;99.90;;;;;;5005786;28;20050;-79
2022/11/09 08:32:10;;;;;;;6.82;3.67;;;12.00;99.90;;;;;;5001384;28;20036;-81
2022/11/09 08:34:36;;;;;;;7.43;4.20;;;12.00;99.90;;;;;;5009814;28;20451;-79
2022/11/09 08:37:04;;;;;;;6.65;3.38;;;12.00;99.90;;;;;;4994545;28;20040;-79
2022/11/09 08:39:30;;;;;;;5.95;4.18;;;12.00;99.90;;;;;;5023552;28;20045;-80
2022/11/09 08:41:57;;;;;;;7.13;4.45;;;12.10;99.90;;;;;;5021676;28;20041;-79
2022/11/09 08:44:23;;;;;;;6.93;3.53;;;12.10;99.90;;;;;;5008531;28;20041;-82
2022/11/09 08:46:49;;;;;;;6.28;3.28;;;12.10;99.90;;;;;;5029970;28;20037;-79
2022/11/09 08:49:16;;;;;;;5.70;4.13;;;12.20;99.90;;;;;;5019672;28;20037;-82
2022/11/09 08:51:42;;;;;;;5.80;3.17;;;12.20;99.90;;;;;;5029910;28;20034;-78
2022/11/09 08:54:10;;;;;;;4.80;2.75;;;12.30;99.90;;;;;;5015150;28;20030;-79
2022/11/09 08:56:36;;;;;;;7.68;4.40;;;12.30;99.90;;;;;;5013870;28;20034;-79
2022/11/09 08:59:02;;;;;;;4.75;2.53;;;12.30;99.90;;;;;;5015227;28;20029;-78
2022/11/09 09:01:28;;;;;;;5.72;2.63;;;12.50;99.90;;;;;;5006723;28;20370;-79
2022/11/09 09:03:54;;;;;;;2.45;1.33;;;12.60;99.90;;;;;;5056317;28;20042;-79
2022/11/09 09:06:20;;;;;;;5.63;1.77;;;12.70;99.90;;;;;;5039929;28;20021;-80
2022/11/09 09:08:46;;;;;;;4.53;2.47;;;12.80;99.90;;;;;;5028182;28;20045;-80
2022/11/09 09:11:14;;;;;;;4.40;2.03;;;12.80;99.90;;;;;;5023391;28;20040;-79
2022/11/09 09:13:40;;;;;;;4.18;1.88;;;12.80;99.90;;;;;;5015866;28;20029;-80
2022/11/09 09:16:14;;;;;;;2.75;1.88;;;12.90;99.90;;;;;;4989156;28;20042;-79
2022/11/09 09:18:40;;;;;;;2.53;1.75;;;12.80;99.90;;;;;;4996928;28;20038;-79
2022/11/09 09:21:08;;;;;;;3.80;2.25;;;13.00;99.90;;;;;;5015201;28;20029;-80
2022/11/09 09:23:34;;;;;;;4.60;2.00;;;13.00;99.90;;;;;;5022490;28;20052;-78
2022/11/09 09:26:01;;;;;;;3.70;1.70;;;12.90;99.90;;;;;;5014859;28;20034;-81
2022/11/09 09:28:27;;;;;;;3.88;2.17;;;12.80;99.90;;;;;;4989858;28;20494;-80
2022/11/09 09:30:56;;;;;;;6.28;2.40;;;12.80;99.90;;;;;;4993650;28;20046;-79
2022/11/09 09:33:22;;;;;;;4.35;1.98;;;12.80;99.90;;;;;;5032886;28;20056;-81
2022/11/09 09:35:50;;;;;;;3.40;1.52;;;12.80;99.90;;;;;;5000547;28;20033;-80
2022/11/09 09:38:17;;;;;;;3.55;1.58;;;12.80;99.90;;;;;;5028163;28;20029;-82
2022/11/09 09:41:00;;;;;;;3.47;2.00;;;13.00;99.90;;;;;;5015148;28;20033;-80
2022/11/09 09:43:58;;;;;;;4.60;2.75;;;13.00;99.90;;;;;;4998328;28;20042;-80
2022/11/09 09:46:37;;;;;;;3.50;2.00;;;13.20;99.90;;;;;;4983226;28;20040;-78
2022/11/09 09:49:14;;;;;;;4.45;2.63;;;13.20;99.90;;;;;;5009130;28;20371;-80
2022/11/09 09:51:46;;;;;;;3.33;1.63;;;13.30;99.90;;;;;;5031114;28;20356;-79
2022/11/09 09:54:23;;;;;;;3.58;2.05;;;13.40;99.90;;;;;;5013823;28;20037;-81
2022/11/09 09:56:52;;;;;;;3.58;2.25;;;13.60;99.90;;;;;;5030563;28;20041;-80
2022/11/09 09:59:37;;;;;;;2.67;1.13;;;13.60;99.90;;;;;;5032763;28;20025;-80
2022/11/09 10:02:24;;;;;;;2.28;1.08;;;13.60;99.90;;;;;;5020393;28;20025;-80
2022/11/09 10:04:53;;;;;;;2.00;1.00;;;13.70;99.90;;;;;;5032021;28;20032;-81
2022/11/09 10:07:38;;;;;;;2.72;1.20;;;13.70;99.90;;;;;;5034834;28;20029;-80
2022/11/09 10:10:23;;;;;;;2.55;1.10;;;13.60;99.90;;;;;;5017292;28;20045;-80
2022/11/09 10:12:57;;;;;;;3.00;1.42;;;13.60;99.90;;;;;;5023210;28;20045;-79
2022/11/09 10:15:42;;;;;;;2.88;1.42;;;13.60;99.90;;;;;;4991222;28;20485;-79
2022/11/09 10:18:36;;;;;;;1.45;0.93;;;13.70;99.90;;;;;;5018010;28;20474;-80
2022/11/09 10:21:23;;;;;;;3.45;1.15;;;13.70;99.90;;;;;;5003344;28;20037;-78
2022/11/09 10:23:49;;;;;;;3.03;1.17;;;13.80;99.90;;;;;;5003682;28;20040;-80
2022/11/09 10:26:32;;;;;;;2.50;1.33;;;13.90;99.90;;;;;;5013439;28;20032;-79
2022/11/09 10:29:11;;;;;;;4.70;1.20;;;13.90;99.90;;;;;;5016593;28;20493;-78
2022/11/09 10:31:39;;;;;;;4.03;1.80;;;13.90;99.90;;;;;;5008261;28;20365;-78
2022/11/09 10:34:17;;;;;;;2.33;1.40;;;14.00;99.90;;;;;;5026604;28;20064;-81
2022/11/09 10:36:51;;;;;;;3.58;2.42;;;14.20;99.90;;;;;;5032836;28;20029;-80
2022/11/09 10:39:20;;;;;;;2.72;1.65;;;14.30;99.90;;;;;;5032769;28;20037;-80
2022/11/09 10:42:05;;;;;;;4.65;2.50;;;14.50;99.90;;;;;;5015887;28;20033;-81
2022/11/09 10:44:49;;;;;;;1.83;0.77;;;14.70;99.90;;;;;;5025564;28;20032;-81
2022/11/09 10:47:47;;;;;;;3.90;1.77;;;14.80;99.90;;;;;;5019656;28;20388;-82
2022/11/09 10:50:34;;;;;;;3.10;1.30;;;14.70;99.90;;;;;;5001334;28;20048;-78
2022/11/09 10:53:24;;;;;;;4.22;1.58;;;14.50;99.90;;;;;;5016989;28;20100;-78
2022/11/09 10:56:17;;;;;;;3.80;1.00;;;14.40;99.90;;;;;;4999723;28;20037;-80
2022/11/09 10:59:02;;;;;;;2.33;1.30;;;14.40;99.90;;;;;;5031460;28;20509;-79
2022/11/09 11:01:46;;;;;;;1.80;1.08;;;14.40;99.90;;;;;;5020865;28;20497;-80
2022/11/09 11:04:31;;;;;;;3.08;1.40;;;14.40;99.90;;;;;;5021626;28;20579;-77
2022/11/09 11:07:20;;;;;;;3.45;1.73;;;14.40;99.90;;;;;;5020876;28;20048;-79
2022/11/09 11:10:14;;;;;;;2.33;1.10;;;14.40;99.90;;;;;;5027203;28;20056;-80
2022/11/09 11:12:58;;;;;;;2.78;1.27;;;14.60;99.90;;;;;;5027931;28;20052;-80
2022/11/09 11:15:43;;;;;;;5.53;1.17;;;14.70;99.90;;;;;;5025160;28;20033;-80
2022/11/09 11:18:33;;;;;;;3.20;1.30;;;14.80;99.90;;;;;;5008842;28;20045;-82
2022/11/09 11:21:20;;;;;;;3.13;1.00;;;15.00;99.90;;;;;;5013833;28;20045;-80
2022/11/09 11:24:12;;;;;;;2.42;0.80;;;15.00;99.90;;;;;;5020793;28;20490;-81
2022/11/09 11:27:04;;;;;;;2.63;0.90;;;15.00;99.90;;;;;;5019125;28;20044;-79
2022/11/09 11:29:51;;;;;;;5.25;1.40;;;14.90;99.90;;;;;;5019842;28;20048;-81
2022/11/09 11:32:35;;;;;;;2.63;0.90;;;14.90;99.90;;;;;;5028433;28;20041;-81
2022/11/09 11:35:56;;;;;;;5.50;1.83;;;14.90;99.90;;;;;;5013074;28;20037;-77
2022/11/09 11:38:47;;;;;;;4.32;1.30;;;14.90;99.90;;;;;;5023180;28;20051;-79
2022/11/09 11:41:57;;;;;;;2.85;1.58;;;14.90;99.90;;;;;;5031744;28;20112;-81
2022/11/09 11:45:05;;;;;;;3.55;0.82;;;14.90;99.90;;;;;;5017877;28;20666;-79
2022/11/09 11:48:10;;;;;;;2.67;0.90;;;14.90;99.90;;;;;;5011112;28;20127;-78
2022/11/09 11:51:07;;;;;;;1.90;1.20;;;14.90;99.90;;;;;;5020718;28;20045;-77
2022/11/09 11:54:22;;;;;;;2.28;1.30;;;15.00;99.90;;;;;;5014844;28;20045;-79
2022/11/09 11:57:33;;;;;;;5.45;1.65;;;15.00;99.90;;;;;;5014282;28;20053;-80
2022/11/09 12:00:19;;;;;;;3.10;1.42;;;15.10;99.90;;;;;;5032184;28;20048;-80
2022/11/09 12:03:29;;;;;;;5.47;1.65;;;15.10;99.90;;;;;;5015040;28;20044;-80
2022/11/09 12:06:14;;;;;;;2.22;0.95;;;15.20;99.90;;;;;;5019153;28;20045;-80
2022/11/09 12:09:09;;;;;;;3.80;0.93;;;15.20;99.90;;;;;;5012114;28;20486;-82
2022/11/09 12:12:15;;;;;;;4.53;1.08;;;15.30;99.90;;;;;;5021268;28;20044;-82
2022/11/09 12:15:19;;;;;;;4.47;1.15;;;15.10;99.90;;;;;;5022301;28;20057;-81
2022/11/09 12:18:10;;;;;;;6.28;2.15;;;15.00;99.90;;;;;;5005109;28;20049;-81
2022/11/09 12:20:55;;;;;;;4.90;1.25;;;15.00;99.90;;;;;;5008162;28;20040;-80
2022/11/09 12:23:42;;;;;;;3.95;1.02;;;15.00;99.90;;;;;;5000598;28;20042;-84
2022/11/09 12:27:01;;;;;;;2.22;0.77;;;15.10;99.90;;;;;;5034699;28;20374;-81
2022/11/09 12:30:07;;;;;;;1.83;0.75;;;15.10;99.90;;;;;;5006861;28;20061;-81
2022/11/09 12:33:30;;;;;;;4.28;1.48;;;15.10;99.90;;;;;;5021089;28;20060;-81
2022/11/09 12:36:24;;;;;;;5.30;1.23;;;15.10;99.90;;;;;;4975524;28;20501;-80
2022/11/09 12:39:31;;;;;;;3.35;1.10;;;15.00;99.90;;;;;;5029119;28;20048;-80
2022/11/09 12:42:24;;;;;;;6.00;1.13;;;15.10;99.90;;;;;;5008944;28;20383;-78
2022/11/09 12:45:17;;;;;;;2.45;1.17;;;15.10;99.90;;;;;;5015151;28;20053;-81
2022/11/09 12:48:22;;;;;;;3.40;1.05;;;15.10;99.90;;;;;;5018972;28;20045;-80
2022/11/09 12:51:07;;;;;;;4.70;0.93;;;15.10;99.90;;;;;;5021593;28;20044;-80
2022/11/09 12:53:54;;;;;;;3.72;1.20;;;15.00;99.90;;;;;;5027736;28;20037;-85
2022/11/09 12:56:54;;;;;;;3.08;1.25;;;15.00;99.90;;;;;;5034108;28;20045;-80
2022/11/09 12:59:57;;;;;;;1.88;0.68;;;15.10;99.90;;;;;;5007457;28;20068;-81
2022/11/09 13:02:52;;;;;;;2.58;1.00;;;15.10;99.90;;;;;;5027606;28;20041;-81
2022/11/09 13:05:38;;;;;;;5.22;1.60;;;15.10;99.90;;;;;;5020735;28;20041;-83
2022/11/09 13:08:28;;;;;;;2.88;1.27;;;15.10;99.90;;;;;;5011791;28;20502;-80
2022/11/09 13:11:27;;;;;;;4.80;1.45;;;15.10;99.90;;;;;;5022548;28;20052;-81